Terminal Aerodrome Forecast
Issued by NWS

Home | Current Version | Previous Version | Text Only | Print | Product List | Glossary On
Versions: 1 2 3 4 5 6 7 8 9 10 11 12 13 14 15
000
FTUS45 KVEF 170000 AAA
TAFBIH
TAF AMD
KBIH 170033Z 1701/1724 17007KT P6SM SCT120
     FM170800 32006KT P6SM SCT250
     FM172000 16018G28KT P6SM SCT250=

USA.gov is the U.S. government's official web portal to all federal, state and local government web resources and services.